Camelia, Kentucky
Current Conditions -  °F | °C
As of 5:53 PM on Saturday 20 Dec 2014 (Local Time) from KPAH Reporting Station
Clear Clear  
Wind Chill: 35°   Ceiling: Unl
Heat Index: 35°   Visibility: 10mi
Dew Point: 27°   Wind: 0mph
Humidity: 72%   Direction: NA
Pressure: 30.26"   Gusts: NA
Location:  37.0919°N, 88.7716°W
Report Text: KPAH 202353Z 00000KT 10SM CLR 02/M03 A3026 RMK AO2 SLP248 T00171028 10078 20017 53005
Loading
Personal Weather Stations






























Interactive Weather Map New forecast layout! Learn more

10-Day Weather Forecast

Advertisements
Track Severe Weather on mobile